Terminal Aerodrome Forecast
Issued by NWS Paducah, KY

Home | Current Version | Previous Version | Graphics & Text | Print | Product List | Glossary On
Versions: 1 2 3 4 5 6 7 8 9 10 11 12 13 14 15 16 17 18
000
FTUS43 KPAH 261120
TAFPAH
TAF
KPAH 261120Z 2612/2712 36010KT 4SM -RA BR SCT006 OVC012
      TEMPO 2612/2615 2SM -RA BR OVC006
     FM261900 36012G19KT P6SM SCT012 BKN025
     FM270000 36004KT P6SM SCT025 BKN100=

USA.gov is the U.S. government's official web portal to all federal, state and local government web resources and services.